KCBM Airport Information

Runway Information
Runway 13C Length 12000 ft width 300 ft
Elevation 195 ft Threshold 0 ft Heading 134
Runway 31C Length 12000 ft Width 300 ft
Elevation 214 ft Threshold 0 ft Heading 314
Runway 13L Length 8000 ft width 150 ft
Elevation 194 ft Threshold 0 ft Heading 135
Runway 31R Length 8000 ft Width 150 ft
Elevation 219 ft Threshold 0 ft Heading 315
Runway 13R Length 6300 ft width 175 ft
Elevation 192 ft Threshold 0 ft Heading 134
Runway 31L Length 6300 ft Width 175 ft
Elevation 207 ft Threshold 0 ft Heading 314
Airport Frequencies
Type APP Name APP Frequency 126.075 MHZ
Type ATIS Name ATIS Frequency 115.2 MHZ
Type CLD Name CLNC DEL Frequency 33.86 MHZ
Type DEP Name DEP Frequency 132.05 MHZ
Type GND Name GND Frequency 121.9 MHZ
Type MISC Name SOF Frequency 25.21 MHZ
Type PMSV Name PMSV METRO Frequency 34.46 MHZ
Type PTD Name PTD Frequency 37.6 MHZ
Type TWR Name TWR Frequency 128.65 MHZ
Airport Navaids
Type VORTAC Name Caledonia Frequency 115200 KHZ
Type VORTAC Name Bigbee Frequency 116200 KHZ
Airport Weather Information & NOTAM
ADDS - METARS form results

(0137 UTC 05 December 2020)
Data provider http://aviationweather.gov/metar/data/
 
METAR text: KCBM 050131Z AUTO 00000KT 10SM SCT030 04/02 A3018 RMK AO2 SLP224 $
Conditions at: KCBM (COLUMBUS AFB , MS, US) observed 0131 UTC 05 December 2020
Temperature: 4.0°C (39°F)
Dewpoint: 2.0°C (36°F) [RH = 87%]
Pressure (altimeter): 30.18 inches Hg (1022.1 mb)
[Sea-level pressure: 1022.4 mb]
Winds: calm
Visibility: 10 or more miles (16+ km)
Ceiling: at least 12,000 feet AGL
Clouds: scattered clouds at 3000 feet AGL
Weather:
SOME DATA ABOVE MAY BE INACCURATE!!!
"$" is an indication the sensor requires maintenance

METAR text: KCBM 050101Z AUTO 00000KT 10SM BKN030 04/01 A3017 RMK AO2 SLP220 $
Conditions at: KCBM (COLUMBUS AFB , MS, US) observed 0101 UTC 05 December 2020
Temperature: 4.0°C (39°F)
Dewpoint: 1.0°C (34°F) [RH = 81%]
Pressure (altimeter): 30.17 inches Hg (1021.8 mb)
[Sea-level pressure: 1022.0 mb]
Winds: calm
Visibility: 10 or more miles (16+ km)
Ceiling: 3000 feet AGL
Clouds: broken clouds at 3000 feet AGL
Weather:
SOME DATA ABOVE MAY BE INACCURATE!!!
"$" is an indication the sensor requires maintenance

METAR text: KCBM 050056Z AUTO 00000KT 10SM SCT030 04/01 A3016 RMK AO2 SLP217 T00360011 $
Conditions at: KCBM (COLUMBUS AFB , MS, US) observed 0056 UTC 05 December 2020
Temperature: 3.6°C (38°F)
Dewpoint: 1.1°C (34°F) [RH = 84%]
Pressure (altimeter): 30.16 inches Hg (1021.4 mb)
[Sea-level pressure: 1021.7 mb]
Winds: calm
Visibility: 10 or more miles (16+ km)
Ceiling: at least 12,000 feet AGL
Clouds: scattered clouds at 3000 feet AGL
Weather:
SOME DATA ABOVE MAY BE INACCURATE!!!
"$" is an indication the sensor requires maintenance

Forecast for: AMD
Text: TAF AMD KCBM 042309Z 0423/0523 28009KT 9999 BKN030 QNH3008INS
Forecast period: 2300 UTC 04 December 2020 to 2300 UTC 05 December 2020
Forecast type: FROM: standard forecast or significant change
Winds: from the W (280 degrees) at 10 MPH (9 knots; 4.6 m/s)
Visibility: 6 or more miles (10+ km)
Ceiling: 3000 feet AGL
Clouds: broken clouds at 3000 feet AGL
Weather: no significant weather forecast for this period
Text: BECMG 0423/0424 30009KT 9999 SCT030 QNH3010INS
Forecast period: 2300 UTC 04 December 2020 to 0400 UTC 05 December 2020
Forecast type: BECOMING: Conditions expected to become as follows by 0000 UTC 05 December 2020
Winds: from the WNW (300 degrees) at 10 MPH (9 knots; 4.6 m/s)
Visibility: 6 or more miles (10+ km)
Ceiling: at least 12,000 feet AGL
Clouds: scattered clouds at 3000 feet AGL
Weather: no significant weather forecast for this period
Text: BECMG 0504/0505 VRB06KT 9999 FEW017 QNH3012INS TX10/0517Z TN02/0513Z LAST NO AMDS AFT 0423 NEXT 0616
Forecast period: 0400 to 2300 UTC 05 December 2020
Forecast type: BECOMING: Conditions expected to become as follows by 0500 UTC 05 December 2020
Winds: variable direction winds at 7 MPH (6 knots; 3.1 m/s)
Visibility: 6 or more miles (10+ km)
Ceiling: at least 12,000 feet AGL
Clouds: few clouds at 1700 feet AGL
Weather: no significant weather forecast for this period